Time;durP1;ratioP1;P1;durP2;ratioP2;P2;SDS_P1;SDS_P2;PMS_P1;PMS_P2;Temp;Humidity;BMP_temperature;BMP_pressure;BME280_temperature;BME280_humidity;BME280_pressure;Samples;Min_cycle;Max_cycle;Signal;HPM_P1;HPM_P2
2022/12/13 03:48:21;;;;;;;3.05;0.50;;;-5.90;91.10;;;;;;4996798;22;82531;-70
2022/12/13 03:50:47;;;;;;;2.33;0.40;;;-5.80;90.90;;;;;;4959030;28;82065;-70
2022/12/13 03:53:13;;;;;;;4.13;0.50;;;-5.80;90.90;;;;;;4953351;28;81859;-70
2022/12/13 03:55:39;;;;;;;2.92;0.77;;;-5.70;90.80;;;;;;4953604;28;83261;-70
2022/12/13 03:58:05;;;;;;;2.80;0.80;;;-5.70;90.90;;;;;;4958207;28;81715;-70
2022/12/13 04:00:30;;;;;;;3.83;0.73;;;-5.80;91.00;;;;;;4955872;28;82612;-71
2022/12/13 04:02:56;;;;;;;4.50;0.90;;;-5.70;91.00;;;;;;4969062;28;81583;-71
2022/12/13 04:05:23;;;;;;;3.72;0.70;;;-5.70;91.00;;;;;;4979504;28;81142;-70
2022/12/13 04:07:49;;;;;;;3.85;0.77;;;-5.80;90.90;;;;;;4979828;28;82044;-71
2022/12/13 04:10:15;;;;;;;3.80;0.68;;;-5.70;90.90;;;;;;4969231;28;82211;-71
2022/12/13 04:15:25;;;;;;;4.20;1.20;;;-5.70;90.90;;;;;;4959899;28;81723;-70
2022/12/13 04:17:51;;;;;;;3.22;1.00;;;-5.80;91.10;;;;;;4960232;28;81951;-70
2022/12/13 04:20:17;;;;;;;4.72;1.10;;;-5.80;91.20;;;;;;4963517;28;83083;-70
2022/12/13 04:22:42;;;;;;;2.97;0.63;;;-5.90;91.20;;;;;;4976846;28;82779;-70
2022/12/13 04:25:08;;;;;;;3.58;0.80;;;-5.90;91.30;;;;;;4959558;28;82092;-71
2022/12/13 04:27:36;;;;;;;4.07;0.85;;;-5.90;91.50;;;;;;4957864;28;81818;-71
2022/12/13 04:30:03;;;;;;;3.97;1.15;;;-5.90;91.60;;;;;;4963367;28;82509;-70
2022/12/13 04:32:29;;;;;;;3.50;0.98;;;-6.00;91.70;;;;;;4958146;28;82686;-70
2022/12/13 04:34:55;;;;;;;3.78;0.82;;;-6.00;91.70;;;;;;4959708;28;81517;-70
2022/12/13 04:37:20;;;;;;;2.75;0.80;;;-6.00;91.50;;;;;;4958998;28;81804;-70
2022/12/13 04:39:46;;;;;;;4.07;0.80;;;-6.10;91.70;;;;;;4959822;28;82170;-70
2022/12/13 04:42:12;;;;;;;6.85;0.68;;;-6.10;91.70;;;;;;4951827;28;81533;-70
2022/12/13 04:44:37;;;;;;;3.60;0.93;;;-6.10;91.80;;;;;;4958900;28;82564;-70
2022/12/13 04:47:03;;;;;;;4.00;0.73;;;-6.10;91.80;;;;;;4945611;28;81719;-70
2022/12/13 04:49:30;;;;;;;3.58;0.80;;;-6.10;92.20;;;;;;4953722;28;82586;-70
2022/12/13 04:51:56;;;;;;;4.60;1.40;;;-6.10;92.20;;;;;;4958193;28;82955;-70
2022/12/13 04:54:22;;;;;;;3.40;0.90;;;-6.20;92.00;;;;;;4973292;28;81781;-70
2022/12/13 04:56:48;;;;;;;4.00;0.80;;;-6.20;91.80;;;;;;4959561;28;81471;-69
2022/12/13 04:59:14;;;;;;;3.25;0.73;;;-6.20;91.80;;;;;;4956976;28;81975;-69
2022/12/13 05:01:40;;;;;;;6.05;0.95;;;-6.30;91.90;;;;;;4963061;28;83907;-69
2022/12/13 05:04:06;;;;;;;3.35;0.88;;;-6.30;92.20;;;;;;4952073;28;82085;-70
2022/12/13 05:06:32;;;;;;;2.50;0.70;;;-6.20;92.20;;;;;;4955866;28;82484;-70
2022/12/13 05:08:57;;;;;;;4.05;1.00;;;-6.20;92.10;;;;;;4961262;28;83088;-69
2022/12/13 05:11:23;;;;;;;4.35;0.90;;;-6.30;92.00;;;;;;4967184;28;83225;-69
2022/12/13 05:13:49;;;;;;;5.00;0.95;;;-6.30;92.10;;;;;;4962855;28;81752;-69
2022/12/13 05:16:14;;;;;;;7.03;1.25;;;-6.30;91.90;;;;;;4962674;28;81379;-70
2022/12/13 05:18:40;;;;;;;4.70;1.20;;;-6.30;91.70;;;;;;4972845;28;82295;-70
2022/12/13 05:21:08;;;;;;;3.83;1.08;;;-6.30;91.70;;;;;;4962733;28;81378;-69
2022/12/13 05:23:34;;;;;;;4.10;0.95;;;-6.30;91.90;;;;;;4960510;28;81271;-69
2022/12/13 05:26:01;;;;;;;7.32;1.13;;;-6.30;92.00;;;;;;4967325;28;81054;-70
2022/12/13 05:28:27;;;;;;;3.90;1.05;;;-6.30;92.00;;;;;;4967274;28;81469;-70
2022/12/13 05:30:55;;;;;;;3.67;0.82;;;-6.20;92.10;;;;;;4967294;28;81960;-69
2022/12/13 05:33:21;;;;;;;6.32;1.30;;;-6.20;92.00;;;;;;4964509;28;82171;-69
2022/12/13 05:35:47;;;;;;;5.22;1.13;;;-6.20;91.90;;;;;;4959901;28;81741;-70
2022/12/13 05:38:13;;;;;;;5.07;1.33;;;-6.20;91.80;;;;;;4959922;28;82162;-70
2022/12/13 05:40:39;;;;;;;4.78;1.33;;;-6.20;91.70;;;;;;4961451;28;81852;-70
2022/12/13 05:43:05;;;;;;;4.90;1.23;;;-6.20;91.90;;;;;;4963750;28;83265;-70
2022/12/13 05:45:31;;;;;;;4.57;1.30;;;-6.10;92.00;;;;;;4959678;28;81838;-70
2022/12/13 05:47:57;;;;;;;4.03;1.23;;;-6.10;92.00;;;;;;4956080;28;82257;-70
2022/12/13 05:50:24;;;;;;;5.07;1.40;;;-6.10;91.70;;;;;;4951318;28;81232;-70
2022/12/13 05:52:49;;;;;;;5.00;1.20;;;-6.10;91.60;;;;;;4943835;28;81990;-70
2022/12/13 05:55:15;;;;;;;5.95;1.20;;;-6.10;91.40;;;;;;4936698;28;82449;-70
2022/12/13 05:57:41;;;;;;;6.20;1.35;;;-6.10;92.00;;;;;;4952506;28;82879;-70
2022/12/13 06:00:08;;;;;;;5.82;1.42;;;-6.20;91.90;;;;;;4958519;28;82821;-71
2022/12/13 06:02:42;;;;;;;7.82;1.60;;;-6.20;91.70;;;;;;4960026;28;81617;-70
2022/12/13 06:05:09;;;;;;;6.07;1.23;;;-6.10;91.80;;;;;;4960011;28;81632;-70
2022/12/13 06:07:36;;;;;;;6.80;2.42;;;-6.10;91.90;;;;;;4955754;28;82889;-71
2022/12/13 06:10:03;;;;;;;9.57;2.70;;;-6.10;91.80;;;;;;4955656;28;81878;-70
2022/12/13 06:12:29;;;;;;;6.68;2.17;;;-6.20;91.90;;;;;;4953642;28;81681;-70
2022/12/13 06:14:55;;;;;;;8.50;2.22;;;-6.20;92.20;;;;;;4954857;28;81635;-70
2022/12/13 06:17:23;;;;;;;6.20;2.30;;;-6.20;92.00;;;;;;4957421;28;82191;-70
2022/12/13 06:19:50;;;;;;;6.35;2.38;;;-6.10;92.10;;;;;;4957897;28;82293;-70
2022/12/13 06:22:16;;;;;;;5.80;2.10;;;-6.10;92.00;;;;;;4959051;28;83512;-70
2022/12/13 06:24:41;;;;;;;13.43;3.55;;;-6.00;91.90;;;;;;4957780;28;81805;-70
2022/12/13 06:27:07;;;;;;;10.73;3.92;;;-6.00;91.90;;;;;;4953059;28;82138;-70
2022/12/13 06:29:33;;;;;;;10.00;3.47;;;-6.10;91.90;;;;;;4958250;28;81331;-70
2022/12/13 06:32:00;;;;;;;11.32;4.60;;;-6.00;92.20;;;;;;4951927;28;81894;-70
2022/12/13 06:34:27;;;;;;;9.43;3.97;;;-6.00;92.10;;;;;;4956848;28;82022;-70
2022/12/13 06:36:53;;;;;;;9.50;3.70;;;-6.00;92.00;;;;;;4957553;28;82248;-70
2022/12/13 06:39:18;;;;;;;12.63;3.88;;;-6.00;91.80;;;;;;4960491;28;82316;-70
2022/12/13 06:41:44;;;;;;;11.75;4.60;;;-6.00;92.00;;;;;;4960372;28;81218;-71
2022/12/13 06:44:10;;;;;;;10.57;4.10;;;-5.90;92.20;;;;;;4962477;28;81833;-70
2022/12/13 06:46:36;;;;;;;12.00;4.18;;;-5.90;92.10;;;;;;4959068;28;82924;-70
2022/12/13 06:49:01;;;;;;;10.20;3.80;;;-5.90;91.90;;;;;;4958346;28;82872;-70
2022/12/13 06:51:27;;;;;;;10.38;3.72;;;-5.90;91.90;;;;;;4957655;28;83471;-71
2022/12/13 06:53:53;;;;;;;10.90;3.47;;;-5.90;91.90;;;;;;4955693;28;82930;-70
2022/12/13 06:56:18;;;;;;;10.05;3.95;;;-5.80;91.70;;;;;;4959733;28;82182;-70
2022/12/13 06:58:44;;;;;;;9.30;2.83;;;-5.70;91.70;;;;;;4954704;28;82003;-70
2022/12/13 07:01:13;;;;;;;5.60;2.13;;;-5.70;91.40;;;;;;4951327;28;81700;-70
2022/12/13 07:03:39;;;;;;;7.78;2.15;;;-5.60;91.50;;;;;;4958870;28;81440;-70
2022/12/13 07:06:25;;;;;;;9.13;2.03;;;-5.60;91.80;;;;;;4959217;28;82099;-70
2022/12/13 07:08:55;;;;;;;9.10;3.22;;;-5.60;91.60;;;;;;4956367;28;85029;-70
2022/12/13 07:11:24;;;;;;;7.18;2.47;;;-5.50;91.40;;;;;;4965400;28;82771;-70
2022/12/13 07:13:50;;;;;;;7.22;2.55;;;-5.40;91.20;;;;;;4958619;28;81576;-70
2022/12/13 07:16:16;;;;;;;6.72;2.13;;;-5.30;91.10;;;;;;4959981;28;81662;-70
2022/12/13 07:18:42;;;;;;;12.40;2.30;;;-5.20;90.90;;;;;;4959924;28;82857;-70
2022/12/13 07:21:09;;;;;;;6.97;2.58;;;-5.20;90.50;;;;;;4959471;28;81226;-70
2022/12/13 07:23:36;;;;;;;6.88;2.38;;;-5.10;90.70;;;;;;4964975;28;82287;-70
2022/12/13 07:26:02;;;;;;;9.90;2.80;;;-5.10;90.60;;;;;;4959069;28;82469;-70
2022/12/13 07:28:30;;;;;;;9.70;2.47;;;-5.00;90.40;;;;;;4960239;28;81238;-70
2022/12/13 07:31:00;;;;;;;6.63;2.58;;;-4.90;90.10;;;;;;4959211;28;82124;-70
2022/12/13 07:33:28;;;;;;;7.38;2.28;;;-4.80;89.90;;;;;;4957061;28;81302;-70
2022/12/13 07:36:11;;;;;;;7.32;1.90;;;-4.80;89.10;;;;;;4956583;28;82602;-70
2022/12/13 07:38:37;;;;;;;6.28;1.45;;;-4.70;88.50;;;;;;4959132;28;83846;-70
2022/12/13 07:41:04;;;;;;;6.30;1.65;;;-4.60;88.80;;;;;;4958231;28;81825;-70
2022/12/13 07:43:31;;;;;;;9.80;1.92;;;-4.40;88.50;;;;;;4959157;28;81946;-70
2022/12/13 07:46:02;;;;;;;5.15;1.60;;;-4.30;87.90;;;;;;4961589;28;82202;-70
2022/12/13 07:48:28;;;;;;;5.55;1.55;;;-4.20;87.10;;;;;;4958465;28;84521;-70
2022/12/13 07:50:59;;;;;;;5.43;1.92;;;-4.00;87.30;;;;;;4953906;28;81955;-70
2022/12/13 07:53:25;;;;;;;4.85;1.85;;;-3.90;87.30;;;;;;4957026;28;81804;-70
2022/12/13 07:55:51;;;;;;;6.22;2.03;;;-3.80;86.20;;;;;;4959262;28;81845;-71
2022/12/13 07:58:17;;;;;;;5.13;1.52;;;-3.70;86.00;;;;;;4958853;28;81588;-71
2022/12/13 08:00:44;;;;;;;8.30;2.63;;;-3.70;85.50;;;;;;4958381;28;82649;-71
2022/12/13 08:03:10;;;;;;;7.20;2.40;;;-3.40;86.00;;;;;;4955342;28;81747;-71
2022/12/13 08:05:37;;;;;;;8.23;2.90;;;-3.20;85.20;;;;;;4955883;28;83490;-71
2022/12/13 08:08:04;;;;;;;6.85;2.33;;;-3.10;84.60;;;;;;4966546;28;81992;-70
2022/12/13 08:10:31;;;;;;;8.38;3.15;;;-2.90;84.60;;;;;;4958343;28;81784;-70
2022/12/13 08:12:57;;;;;;;22.65;6.68;;;-2.80;83.60;;;;;;4958904;28;81601;-71
2022/12/13 08:15:23;;;;;;;7.05;2.30;;;-2.90;83.00;;;;;;4958723;28;82158;-71
2022/12/13 08:17:49;;;;;;;6.82;2.72;;;-2.80;82.80;;;;;;4960330;28;82475;-70
2022/12/13 08:20:16;;;;;;;7.63;3.60;;;-2.70;84.00;;;;;;4958482;28;81864;-70
2022/12/13 08:22:42;;;;;;;10.13;3.53;;;-2.50;83.10;;;;;;4958626;28;81759;-71
2022/12/13 08:25:08;;;;;;;8.50;3.15;;;-2.40;83.10;;;;;;4958134;28;82619;-71
2022/12/13 08:27:33;;;;;;;7.32;2.67;;;-2.20;83.00;;;;;;4959137;28;82723;-71
2022/12/13 08:29:59;;;;;;;8.50;3.53;;;-2.00;83.20;;;;;;4956724;28;81830;-70
2022/12/13 08:32:25;;;;;;;12.27;3.22;;;-1.80;82.90;;;;;;4963921;28;81572;-71
2022/12/13 08:34:51;;;;;;;12.82;4.90;;;-1.70;82.80;;;;;;4958803;28;82325;-70
2022/12/13 08:37:17;;;;;;;10.50;3.97;;;-1.60;81.90;;;;;;4963493;28;81933;-70
2022/12/13 08:39:43;;;;;;;12.77;3.33;;;-1.50;81.80;;;;;;4960117;28;81442;-71
2022/12/13 08:42:16;;;;;;;11.50;2.92;;;-1.40;82.00;;;;;;4961311;28;81740;-69
2022/12/13 08:44:42;;;;;;;9.23;3.40;;;-1.40;81.80;;;;;;4963787;28;82941;-69
2022/12/13 08:47:07;;;;;;;7.53;3.00;;;-1.20;81.70;;;;;;4967232;28;81839;-69
2022/12/13 08:49:33;;;;;;;9.45;3.35;;;-1.10;80.50;;;;;;4962056;28;82579;-69
2022/12/13 08:51:59;;;;;;;10.73;3.42;;;-1.00;80.20;;;;;;4963196;28;81722;-69
2022/12/13 08:54:25;;;;;;;10.68;3.65;;;-0.90;79.80;;;;;;4961869;28;81979;-69
2022/12/13 08:56:51;;;;;;;8.32;3.20;;;-0.90;79.80;;;;;;4962410;28;81904;-71
2022/12/13 08:59:17;;;;;;;6.95;2.60;;;-0.90;80.50;;;;;;4960216;28;81948;-71
2022/12/13 09:01:43;;;;;;;7.78;2.70;;;-0.90;80.60;;;;;;4964073;28;81605;-71
2022/12/13 09:04:09;;;;;;;7.20;2.95;;;-0.90;80.40;;;;;;4959714;28;82029;-71
2022/12/13 09:06:34;;;;;;;6.95;3.00;;;-0.80;81.00;;;;;;4961676;28;82276;-71
2022/12/13 09:09:00;;;;;;;8.85;3.63;;;-0.70;80.60;;;;;;4962773;28;81692;-71
2022/12/13 09:11:26;;;;;;;8.50;3.25;;;-0.80;80.70;;;;;;4965480;28;81756;-70
2022/12/13 09:13:51;;;;;;;8.15;3.17;;;-0.90;81.50;;;;;;4959005;28;82803;-71
2022/12/13 09:16:21;;;;;;;7.80;3.17;;;-1.00;81.30;;;;;;4959891;28;82144;-71
2022/12/13 09:18:46;;;;;;;7.72;2.95;;;-0.90;81.70;;;;;;4960778;28;82625;-71
2022/12/13 09:21:14;;;;;;;10.20;2.97;;;-0.90;81.10;;;;;;4958944;28;82000;-70
2022/12/13 09:23:43;;;;;;;7.72;2.67;;;-0.80;81.20;;;;;;4964649;28;82196;-70
2022/12/13 09:26:11;;;;;;;8.23;2.80;;;-0.70;80.60;;;;;;4966531;28;81794;-70
2022/12/13 09:28:37;;;;;;;5.35;2.15;;;-0.70;80.80;;;;;;4961550;28;81660;-70
2022/12/13 09:31:08;;;;;;;5.88;2.28;;;-0.70;79.90;;;;;;4961582;28;81651;-70
2022/12/13 09:33:34;;;;;;;5.55;2.13;;;-0.60;79.10;;;;;;4959192;28;81391;-68
2022/12/13 09:36:06;;;;;;;5.43;2.25;;;-0.60;80.30;;;;;;4950917;28;81920;-70
2022/12/13 09:38:34;;;;;;;6.45;2.47;;;-0.50;80.00;;;;;;4955101;28;84151;-70
2022/12/13 09:41:15;;;;;;;9.48;2.97;;;-0.50;79.00;;;;;;4960448;28;81896;-70
2022/12/13 09:43:43;;;;;;;6.35;2.63;;;-0.40;79.20;;;;;;4961941;28;81272;-70
2022/12/13 09:46:19;;;;;;;5.88;2.28;;;-0.30;79.00;;;;;;4961139;28;83039;-70
2022/12/13 09:48:45;;;;;;;6.57;2.42;;;-0.30;78.40;;;;;;4958763;28;81530;-70
2022/12/13 09:51:10;;;;;;;5.85;2.63;;;-0.10;77.50;;;;;;4959838;28;82226;-70
2022/12/13 09:53:36;;;;;;;6.45;2.53;;;0.00;77.50;;;;;;4960608;28;81348;-70
2022/12/13 09:56:02;;;;;;;5.32;2.05;;;0.10;77.40;;;;;;4964965;28;81899;-70
2022/12/13 09:58:30;;;;;;;11.23;4.18;;;0.20;75.70;;;;;;4961005;28;81572;-70
2022/12/13 10:00:57;;;;;;;7.25;2.72;;;0.20;77.00;;;;;;4961709;28;83365;-70
2022/12/13 10:03:24;;;;;;;6.90;1.95;;;0.20;75.60;;;;;;4958559;28;82430;-70
2022/12/13 10:06:07;;;;;;;5.93;2.28;;;0.20;75.90;;;;;;4960439;28;82175;-70
2022/12/13 10:08:40;;;;;;;6.25;2.30;;;0.30;76.50;;;;;;4960152;28;81708;-70
2022/12/13 10:11:06;;;;;;;8.80;2.20;;;0.30;76.60;;;;;;4960716;28;82084;-70
2022/12/13 10:14:16;;;;;;;6.72;2.50;;;0.40;76.00;;;;;;4960420;28;82015;-70
2022/12/13 10:16:47;;;;;;;7.45;2.78;;;0.50;75.40;;;;;;4941275;28;81707;-70
2022/12/13 10:19:21;;;;;;;;;;;0.70;74.80;;;;;;4961613;28;81549;-70
2022/12/13 10:21:47;;;;;;;6.88;2.80;;;0.90;74.40;;;;;;4961117;28;81636;-70
2022/12/13 10:24:31;;;;;;;6.47;2.60;;;1.00;74.80;;;;;;4959667;28;82101;-70
2022/12/13 10:27:18;;;;;;;9.27;3.30;;;1.10;73.50;;;;;;4958963;28;82127;-70
2022/12/13 10:29:57;;;;;;;8.23;3.22;;;1.00;74.80;;;;;;4958913;28;82628;-70
2022/12/13 10:32:23;;;;;;;8.80;3.03;;;0.90;74.80;;;;;;4957859;28;82909;-71
2022/12/13 10:34:49;;;;;;;8.20;3.28;;;0.90;74.40;;;;;;4964598;28;82457;-71
2022/12/13 10:37:30;;;;;;;13.50;5.00;;;0.80;74.80;;;;;;4963217;28;82084;-71
2022/12/13 10:39:57;;;;;;;6.35;2.33;;;0.80;74.90;;;;;;4961119;28;81724;-70
2022/12/13 10:42:23;;;;;;;8.05;2.65;;;0.80;74.30;;;;;;4959281;28;81852;-70
2022/12/13 10:45:09;;;;;;;8.38;2.63;;;0.90;74.30;;;;;;4959732;28;82446;-71
2022/12/13 10:47:35;;;;;;;12.32;4.43;;;0.80;74.40;;;;;;4959064;28;81858;-70
2022/12/13 10:50:01;;;;;;;7.82;3.30;;;0.90;75.20;;;;;;4967544;28;82218;-70
2022/12/13 10:52:29;;;;;;;12.18;3.47;;;0.90;75.10;;;;;;4962542;28;81959;-70
2022/12/13 10:54:57;;;;;;;13.10;3.53;;;0.70;74.30;;;;;;4959329;28;83153;-70
2022/12/13 10:57:24;;;;;;;6.80;2.78;;;0.70;75.90;;;;;;4958735;28;82953;-71
2022/12/13 10:59:50;;;;;;;8.05;3.05;;;0.70;75.80;;;;;;4966698;28;81581;-70
2022/12/13 11:02:38;;;;;;;5.40;2.28;;;0.70;75.40;;;;;;4953570;28;83293;-70
2022/12/13 11:05:23;;;;;;;9.07;3.33;;;0.70;76.00;;;;;;4950202;28;82146;-70
2022/12/13 11:07:49;;;;;;;8.73;2.80;;;0.70;76.10;;;;;;4957692;28;81335;-70
2022/12/13 11:10:26;;;;;;;11.85;2.90;;;0.70;76.70;;;;;;4957066;28;81599;-70
2022/12/13 11:12:57;;;;;;;8.40;3.15;;;0.60;76.40;;;;;;4959530;28;81720;-70
2022/12/13 11:15:25;;;;;;;10.13;3.38;;;0.50;76.60;;;;;;4956164;28;81726;-68
2022/12/13 11:18:09;;;;;;;9.57;3.75;;;0.50;77.30;;;;;;4952549;28;82302;-70
2022/12/13 11:20:36;;;;;;;7.47;3.17;;;0.60;77.50;;;;;;4952310;28;82919;-70
2022/12/13 11:23:22;;;;;;;8.00;3.00;;;0.70;77.50;;;;;;4958392;28;81956;-71
2022/12/13 11:25:53;;;;;;;7.88;2.85;;;0.80;76.80;;;;;;4967262;28;83107;-71
2022/12/13 11:29:12;;;;;;;8.10;3.22;;;0.90;77.00;;;;;;4952192;28;82774;-71
2022/12/13 11:31:59;;;;;;;7.93;3.22;;;0.90;76.10;;;;;;4877656;28;81807;-70
2022/12/13 11:34:34;;;;;;;8.93;3.40;;;0.90;77.50;;;;;;4873065;28;82621;-71
2022/12/13 11:37:30;;;;;;;10.88;3.90;;;0.90;77.80;;;;;;4936904;28;81933;-70
2022/12/13 11:40:05;;;;;;;11.98;4.45;;;0.90;77.50;;;;;;4956627;28;81945;-70
2022/12/13 11:42:40;;;;;;;8.85;4.20;;;0.80;77.60;;;;;;4962211;28;82406;-70
2022/12/13 11:45:13;;;;;;;10.60;5.22;;;0.80;78.00;;;;;;4960673;28;81599;-71
2022/12/13 11:47:45;;;;;;;11.70;3.80;;;0.90;78.00;;;;;;4956054;28;82649;-70
2022/12/13 11:50:35;;;;;;;10.18;4.63;;;1.00;77.80;;;;;;4950563;28;82132;-70
2022/12/13 11:53:29;;;;;;;8.10;4.28;;;0.90;78.10;;;;;;4944386;28;81599;-70
2022/12/13 11:56:12;;;;;;;11.98;4.70;;;0.80;78.10;;;;;;4951482;28;81511;-70
2022/12/13 11:59:16;;;;;;;11.55;4.57;;;0.80;78.00;;;;;;4949711;28;81716;-71
2022/12/13 12:01:44;;;;;;;;;;;1.00;77.80;;;;;;4952828;28;81602;-71
2022/12/13 12:04:40;;;;;;;12.23;4.97;;;1.10;77.30;;;;;;4954086;28;82077;-70
2022/12/13 12:07:14;;;;;;;10.75;4.72;;;1.10;77.50;;;;;;4952881;28;82164;-70
2022/12/13 12:09:47;;;;;;;12.50;5.68;;;1.10;76.80;;;;;;4958204;28;81977;-69
2022/12/13 12:12:23;;;;;;;12.50;5.30;;;1.10;77.10;;;;;;4958728;28;82062;-70
2022/12/13 12:15:02;;;;;;;12.07;4.78;;;1.10;77.30;;;;;;4956781;28;82656;-70
2022/12/13 12:17:27;;;;;;;10.75;4.80;;;0.90;77.00;;;;;;4957400;28;81722;-70
2022/12/13 12:19:56;;;;;;;12.88;5.18;;;0.70;77.90;;;;;;4958452;28;82175;-70
2022/12/13 12:22:35;;;;;;;15.57;6.43;;;0.80;78.10;;;;;;4954576;28;82127;-70
2022/12/13 12:25:23;;;;;;;12.07;4.80;;;0.70;78.00;;;;;;4958067;28;81619;-70
2022/12/13 12:28:39;;;;;;;17.35;4.47;;;0.80;77.30;;;;;;4958298;28;82274;-69
2022/12/13 12:31:29;;;;;;;11.25;4.72;;;0.80;77.70;;;;;;4927872;28;83200;-69
2022/12/13 12:34:19;;;;;;;11.02;4.70;;;0.60;77.60;;;;;;4953322;28;81904;-70
2022/12/13 12:37:04;;;;;;;10.82;4.13;;;0.70;78.10;;;;;;4946624;28;82250;-70
2022/12/13 12:39:29;;;;;;;15.10;4.90;;;0.70;77.90;;;;;;4954911;28;81837;-69
2022/12/13 12:42:16;;;;;;;10.88;4.75;;;0.70;78.00;;;;;;4956014;28;82570;-69
2022/12/13 12:44:51;;;;;;;9.82;4.28;;;0.80;78.00;;;;;;4955408;28;82838;-69
2022/12/13 12:47:41;;;;;;;12.10;4.70;;;0.70;77.50;;;;;;4945970;28;81994;-69
2022/12/13 12:50:17;;;;;;;13.48;5.05;;;0.50;78.00;;;;;;4959011;28;81742;-69
2022/12/13 12:53:07;;;;;;;11.43;4.82;;;0.40;78.50;;;;;;4959237;28;82854;-70
2022/12/13 12:55:41;;;;;;;9.55;4.45;;;0.40;78.60;;;;;;4955235;28;82722;-70
2022/12/13 12:58:27;;;;;;;10.98;4.70;;;0.40;78.50;;;;;;4954336;28;81679;-69
2022/12/13 13:01:18;;;;;;;11.93;4.10;;;0.50;78.20;;;;;;4952720;28;82521;-70
2022/12/13 13:03:46;;;;;;;11.43;4.50;;;0.50;78.40;;;;;;4946562;28;82192;-70
2022/12/13 13:06:14;;;;;;;16.67;4.70;;;0.50;78.60;;;;;;4952524;28;82434;-70
2022/12/13 13:08:59;;;;;;;10.93;5.13;;;0.50;78.90;;;;;;4965267;28;82633;-70
2022/12/13 13:11:29;;;;;;;11.40;4.75;;;0.50;79.40;;;;;;4955374;28;82025;-70
2022/12/13 13:13:58;;;;;;;16.25;5.03;;;0.50;78.70;;;;;;4955951;28;82609;-70
2022/12/13 13:16:26;;;;;;;12.13;4.38;;;0.60;78.70;;;;;;4965201;28;82063;-70
2022/12/13 13:18:54;;;;;;;9.75;4.65;;;0.70;78.40;;;;;;4955030;28;81681;-70
2022/12/13 13:21:22;;;;;;;10.63;4.70;;;0.80;77.70;;;;;;4959328;28;82217;-70
2022/12/13 13:24:00;;;;;;;12.30;4.68;;;0.70;77.50;;;;;;4955021;28;81333;-70
2022/12/13 13:26:41;;;;;;;13.05;4.88;;;0.50;78.20;;;;;;4954422;28;81946;-70
2022/12/13 13:29:22;;;;;;;12.75;5.30;;;0.60;78.90;;;;;;4959358;28;81334;-70
2022/12/13 13:32:02;;;;;;;10.13;4.78;;;0.60;78.30;;;;;;4954703;28;81319;-70
2022/12/13 13:34:34;;;;;;;13.00;5.00;;;0.60;78.60;;;;;;4955340;28;82649;-70
2022/12/13 13:37:01;;;;;;;14.10;5.07;;;0.70;78.00;;;;;;4959067;28;81943;-70
2022/12/13 13:39:27;;;;;;;13.95;4.82;;;0.60;78.00;;;;;;4965524;28;81643;-70
2022/12/13 13:42:15;;;;;;;13.45;5.03;;;0.70;78.40;;;;;;4964653;28;81235;-70
2022/12/13 13:44:44;;;;;;;16.60;4.88;;;0.70;78.30;;;;;;4957294;28;82251;-70
2022/12/13 13:47:18;;;;;;;12.77;5.13;;;0.70;80.70;;;;;;4958168;28;81591;-70
2022/12/13 13:50:06;;;;;;;14.98;5.20;;;0.70;78.80;;;;;;4957554;28;81745;-70
2022/12/13 13:53:00;;;;;;;13.23;5.28;;;0.70;79.00;;;;;;4959494;28;83457;-70
2022/12/13 13:55:55;;;;;;;11.05;4.68;;;0.70;78.50;;;;;;4953472;28;81982;-70
2022/12/13 13:58:35;;;;;;;13.13;5.13;;;0.70;78.80;;;;;;4914379;28;81681;-70
2022/12/13 14:01:28;;;;;;;12.80;5.13;;;0.60;79.30;;;;;;4956211;28;82636;-70
2022/12/13 14:04:21;;;;;;;18.52;5.93;;;0.70;79.30;;;;;;4954775;28;81821;-70
2022/12/13 14:07:15;;;;;;;14.18;5.80;;;0.60;79.30;;;;;;4954916;28;82122;-70
2022/12/13 14:09:44;;;;;;;12.27;5.72;;;0.60;79.60;;;;;;4954889;28;81927;-70
2022/12/13 14:12:15;;;;;;;15.88;6.50;;;0.40;80.10;;;;;;4958424;28;81931;-70
2022/12/13 14:15:04;;;;;;;12.68;5.45;;;0.40;80.20;;;;;;4940703;28;84558;-70
2022/12/13 14:18:03;;;;;;;18.02;5.72;;;0.40;80.30;;;;;;4950119;28;81914;-70
2022/12/13 14:20:54;;;;;;;14.07;5.03;;;0.40;80.40;;;;;;4957138;28;81326;-70
2022/12/13 14:23:23;;;;;;;12.65;5.13;;;0.30;80.00;;;;;;4912654;28;82142;-70
2022/12/13 14:26:06;;;;;;;12.00;5.13;;;0.30;80.80;;;;;;4951819;28;82075;-71
2022/12/13 14:28:53;;;;;;;11.70;4.70;;;0.20;80.90;;;;;;4958841;28;83047;-70
2022/12/13 14:31:30;;;;;;;11.70;4.75;;;0.30;82.70;;;;;;4964294;28;84390;-71
2022/12/13 14:33:58;;;;;;;12.10;4.93;;;0.40;81.10;;;;;;4965608;28;81928;-71
2022/12/13 14:36:35;;;;;;;11.05;5.05;;;0.30;80.70;;;;;;4959691;28;81836;-70
2022/12/13 14:39:15;;;;;;;14.75;5.28;;;0.40;80.70;;;;;;4951556;28;81677;-70
2022/12/13 14:41:46;;;;;;;12.02;4.43;;;0.30;80.80;;;;;;4958817;28;81805;-71
2022/12/13 14:44:19;;;;;;;15.65;5.20;;;0.30;80.60;;;;;;4960865;28;81801;-70
2022/12/13 14:46:58;;;;;;;13.35;5.65;;;0.30;80.50;;;;;;4958627;28;80903;-71
2022/12/13 14:49:26;;;;;;;13.40;5.70;;;0.20;81.00;;;;;;4958369;28;82378;-71
2022/12/13 14:52:02;;;;;;;12.00;5.35;;;0.30;81.10;;;;;;4960719;28;81438;-71
2022/12/13 14:55:03;;;;;;;14.50;5.30;;;0.30;80.90;;;;;;4959738;28;82890;-70
2022/12/13 14:57:30;;;;;;;12.27;5.00;;;0.40;81.30;;;;;;4959293;28;81983;-70
2022/12/13 14:59:57;;;;;;;13.15;5.60;;;0.40;80.50;;;;;;4961800;28;82234;-70
2022/12/13 15:02:29;;;;;;;11.85;5.40;;;0.50;80.80;;;;;;4959759;28;82011;-70
2022/12/13 15:04:57;;;;;;;13.10;5.20;;;0.40;81.20;;;;;;4959514;28;81797;-70
2022/12/13 15:07:27;;;;;;;12.95;5.53;;;0.30;81.00;;;;;;4967745;28;82656;-70
2022/12/13 15:10:00;;;;;;;12.13;5.07;;;0.30;81.40;;;;;;4961106;28;81844;-70
2022/12/13 15:12:27;;;;;;;11.70;5.25;;;0.30;81.10;;;;;;4958783;28;81910;-70
2022/12/13 15:15:06;;;;;;;11.93;5.13;;;0.30;81.20;;;;;;4959186;28;81808;-70
2022/12/13 15:17:35;;;;;;;15.32;6.15;;;0.30;81.10;;;;;;4957286;28;81940;-70
2022/12/13 15:20:19;;;;;;;13.43;5.88;;;0.20;81.50;;;;;;4957917;28;82584;-71
2022/12/13 15:22:45;;;;;;;14.07;5.65;;;0.20;81.70;;;;;;4943391;28;82144;-70
2022/12/13 15:25:13;;;;;;;27.25;10.25;;;0.10;81.60;;;;;;4957608;28;81891;-70
2022/12/13 15:27:39;;;;;;;14.75;6.25;;;0.10;81.70;;;;;;4958530;28;82735;-70
2022/12/13 15:30:05;;;;;;;16.15;7.82;;;0.10;82.10;;;;;;4959576;28;81929;-70
2022/12/13 15:32:31;;;;;;;20.98;7.72;;;0.10;81.90;;;;;;4959562;28;82095;-70
2022/12/13 15:35:13;;;;;;;28.05;10.93;;;0.10;82.10;;;;;;4959192;28;82167;-70
2022/12/13 15:37:39;;;;;;;16.23;6.55;;;0.10;81.90;;;;;;4957235;28;82343;-70
2022/12/13 15:40:07;;;;;;;16.35;5.47;;;0.20;81.80;;;;;;4961351;28;81620;-70
2022/12/13 15:42:36;;;;;;;12.77;6.25;;;0.20;81.70;;;;;;4960825;28;82087;-70
2022/12/13 15:45:33;;;;;;;11.73;5.53;;;0.10;81.80;;;;;;4958633;28;82258;-70
2022/12/13 15:47:59;;;;;;;14.60;6.32;;;0.10;82.20;;;;;;4957874;28;82138;-70
2022/12/13 15:50:37;;;;;;;11.93;5.63;;;0.10;83.00;;;;;;4958518;28;82772;-70
2022/12/13 15:53:18;;;;;;;15.73;5.97;;;0.20;82.90;;;;;;4956951;28;82082;-70
2022/12/13 15:55:45;;;;;;;18.05;5.88;;;0.30;81.40;;;;;;4954847;28;81301;-70
2022/12/13 15:58:30;;;;;;;16.48;7.30;;;0.30;81.50;;;;;;4960614;28;81894;-71
2022/12/13 16:00:57;;;;;;;17.75;5.75;;;0.30;81.30;;;;;;4965054;28;81673;-70
2022/12/13 16:03:25;;;;;;;13.02;5.82;;;0.20;81.70;;;;;;4959142;28;81968;-70
2022/12/13 16:05:53;;;;;;;12.68;5.72;;;0.40;81.40;;;;;;4960869;28;81276;-70
2022/12/13 16:08:32;;;;;;;17.17;6.25;;;0.30;81.00;;;;;;4958376;28;81620;-70
2022/12/13 16:10:58;;;;;;;16.05;6.03;;;0.30;81.20;;;;;;4957842;28;82772;-70
2022/12/13 16:13:26;;;;;;;15.23;6.63;;;0.30;81.30;;;;;;4958959;28;82133;-70
2022/12/13 16:16:00;;;;;;;24.90;8.82;;;0.30;81.30;;;;;;4967560;28;81300;-70
2022/12/13 16:18:43;;;;;;;12.57;5.88;;;0.30;81.00;;;;;;4956266;28;81870;-70
2022/12/13 16:21:09;;;;;;;15.45;6.28;;;0.30;81.30;;;;;;4947741;28;81727;-70
2022/12/13 16:23:35;;;;;;;12.05;5.45;;;0.30;81.40;;;;;;4959733;28;81966;-70
2022/12/13 16:26:00;;;;;;;12.30;4.97;;;0.30;81.50;;;;;;4953930;28;82112;-71
2022/12/13 16:28:26;;;;;;;14.32;5.97;;;0.30;81.30;;;;;;4954861;28;81533;-71
2022/12/13 16:30:52;;;;;;;11.38;4.90;;;0.30;81.10;;;;;;4955986;28;82154;-70
2022/12/13 16:33:22;;;;;;;12.35;5.13;;;0.30;80.80;;;;;;4949781;28;82092;-70
2022/12/13 16:35:48;;;;;;;16.17;5.45;;;0.40;81.10;;;;;;4952308;28;82701;-70
2022/12/13 16:38:15;;;;;;;14.00;5.55;;;0.50;80.60;;;;;;4953340;28;81878;-70
2022/12/13 16:40:42;;;;;;;12.23;5.18;;;0.40;82.00;;;;;;4950050;28;81957;-70
2022/12/13 16:43:16;;;;;;;14.35;5.30;;;0.40;80.90;;;;;;4954642;28;82294;-70
2022/12/13 16:45:44;;;;;;;11.27;5.43;;;0.50;80.90;;;;;;4959566;28;81687;-70
2022/12/13 16:48:11;;;;;;;14.77;5.38;;;0.50;80.50;;;;;;4961134;28;81560;-70
2022/12/13 16:50:41;;;;;;;11.15;5.43;;;0.50;81.00;;;;;;4958516;28;81612;-70
2022/12/13 16:53:07;;;;;;;11.02;5.40;;;0.40;80.60;;;;;;4958919;28;81096;-70
2022/12/13 16:55:33;;;;;;;18.88;5.80;;;0.50;80.60;;;;;;4956701;28;81168;-72
2022/12/13 16:58:01;;;;;;;12.15;5.50;;;0.60;80.10;;;;;;4957830;28;81504;-71
2022/12/13 17:00:28;;;;;;;11.85;5.28;;;0.60;80.20;;;;;;4956854;28;82907;-71